Hauptseite
METAR-TAF:

METAR-TAF

Flughäfen :

Fliegerhorst Lechfeld

Lechfeld, Deutschland

Breite: 48-11N, Länge: 010-52E, Höhe: 555 m

Beobachtung

Neuester Wetterbericht von vor 1 Stunde und 0 Minuten, um 01:20 UTC
Wind 3 kt aus Süd
Temperatur 5°C
Luftfeuchtigkeit 93%
Luftdruck 1026 hPa
Sichtweite: 7000 m

METAR: ETSL 230120Z AUTO 18003KT 7000 // ////// 05/04 Q1026 ///

Zeit: 04:20 (02:20 UTC)

Prognose

Neuester Wetterbericht von vor 16 Stunden und 0 Minuten, um 10:20 UTC
Gültige Prognose vom 22 um 10 UTC bis 22 um 17 UTC
Wind 7 kt aus West
Sichtweite 10 km oder mehr
Leicht bewölkt in der Höhe von 4000 ft
Zeitweise
vom 22 um 10 UTC bis 22 um 14 UTC
Wind 12 kt aus West/Nordwest, Böen bis zu 25 kt
Sichtweite: 1020 m
Aufgelockert bewölkt in der Höhe von 5000 ft

TAF: ETSL 221020Z 2210/2217 28007KT 9999 NSW FEW040 TEMPO 2210/2214 29012G25KT 9999 NSW SCT050 CANCEL 1020 BY ETGL

Wetterbeobachtungen und Prognosen von mehr als 4000 Flughäfen (METAR und TAF Bericht).

Die verfügbaren Stationen werden durch gelbe und rote Markierungen auf der Karte dargestellt.

Führen Sie die Maus auf sie, um den Namen der Station zu sehen.

Darauf klicken, um die Beobachtung von Wetterbeobachtungen und Prognosen zu sehen.

Um die Karte zu ändern : klicken Sie auf den grünen Tasten mit einem schwarzen Kreuz Zum Vergrößern, auf den grünen Button mit einem Gedankenstrich zu verkleinern, oder auf die grünen Pfeile für benachbarte Karten.


METAR-TAF: